createdAt,value
2023-05-21T00:01:48.713Z,3.78
2023-05-21T00:04:17.575Z,5.30
2023-05-21T00:06:45.761Z,1.98
2023-05-21T00:09:13.709Z,1.92
2023-05-21T00:11:41.524Z,2.00
2023-05-21T00:14:10.892Z,1.90
2023-05-21T00:16:38.905Z,2.08
2023-05-21T00:19:06.884Z,2.00
2023-05-21T00:21:34.950Z,2.95
2023-05-21T00:24:02.804Z,2.05
2023-05-21T00:26:30.782Z,2.38
2023-05-21T00:28:58.866Z,2.28
2023-05-21T00:31:28.135Z,2.67
2023-05-21T00:33:56.094Z,3.42
2023-05-21T00:36:24.352Z,2.10
2023-05-21T00:38:52.875Z,2.63
2023-05-21T00:41:22.752Z,4.82
2023-05-21T00:43:50.744Z,3.88
2023-05-21T00:46:20.807Z,2.20
2023-05-21T00:48:51.407Z,3.15
2023-05-21T00:51:21.802Z,3.35
2023-05-21T00:53:52.432Z,2.78
2023-05-21T00:56:21.394Z,2.65
2023-05-21T00:58:51.735Z,2.92
2023-05-21T01:01:19.760Z,3.90
2023-05-21T01:03:48.922Z,2.78
2023-05-21T01:06:20.719Z,2.55
2023-05-21T01:08:50.809Z,2.22
2023-05-21T01:11:19.721Z,2.65
2023-05-21T01:13:49.501Z,2.80
2023-05-21T01:16:17.926Z,2.58
2023-05-21T01:18:47.058Z,2.55
2023-05-21T01:21:17.415Z,2.90
2023-05-21T01:23:46.943Z,6.20
2023-05-21T01:26:16.006Z,2.92
2023-05-21T01:28:44.042Z,2.97
2023-05-21T01:31:22.264Z,2.88
2023-05-21T01:33:52.680Z,2.80
2023-05-21T01:36:26.301Z,5.60
2023-05-21T01:39:02.471Z,3.78
2023-05-21T01:41:34.284Z,3.30
2023-05-21T01:44:07.291Z,4.70
2023-05-21T01:46:36.686Z,3.17
2023-05-21T01:49:06.763Z,3.30
2023-05-21T01:51:35.113Z,2.88
2023-05-21T01:54:04.662Z,3.70
2023-05-21T01:56:33.963Z,3.42
2023-05-21T01:59:01.920Z,3.13
2023-05-21T02:01:30.625Z,5.10
2023-05-21T02:03:58.863Z,3.17
2023-05-21T02:06:26.907Z,3.47
2023-05-21T02:08:55.503Z,3.80
2023-05-21T02:11:24.811Z,3.55
2023-05-21T02:13:52.659Z,7.32
2023-05-21T02:16:22.339Z,3.72
2023-05-21T02:18:53.523Z,3.40
2023-05-21T02:21:21.686Z,2.83
2023-05-21T02:23:49.810Z,4.80
2023-05-21T02:26:18.452Z,3.72
2023-05-21T02:28:48.626Z,5.10
2023-05-21T02:31:16.826Z,3.50
2023-05-21T02:33:44.832Z,3.95
2023-05-21T02:36:13.304Z,3.40
2023-05-21T02:38:43.511Z,4.78
2023-05-21T02:41:11.914Z,5.32
2023-05-21T02:43:39.945Z,5.95
2023-05-21T02:46:09.295Z,3.15
2023-05-21T02:48:37.157Z,4.65
2023-05-21T02:51:05.146Z,4.00
2023-05-21T02:53:32.995Z,4.30
2023-05-21T02:56:00.838Z,5.00
2023-05-21T02:58:28.702Z,5.07
2023-05-21T03:00:56.545Z,3.97
2023-05-21T03:03:25.904Z,3.80
2023-05-21T03:05:53.944Z,5.47
2023-05-21T03:08:22.247Z,4.55
2023-05-21T03:10:50.682Z,4.40
2023-05-21T03:13:18.694Z,4.15
2023-05-21T03:15:47.327Z,5.95
2023-05-21T03:18:15.721Z,3.85
2023-05-21T03:20:45.347Z,4.07
2023-05-21T03:23:16.483Z,5.05
2023-05-21T03:25:45.916Z,3.90
2023-05-21T03:28:13.892Z,3.78
2023-05-21T03:30:41.970Z,4.13
2023-05-21T03:33:11.175Z,3.72
2023-05-21T03:35:39.222Z,3.80
2023-05-21T03:38:08.473Z,5.28
2023-05-21T03:40:36.405Z,3.40
2023-05-21T03:43:04.227Z,3.88
2023-05-21T03:45:32.009Z,3.78
2023-05-21T03:48:01.515Z,4.32
2023-05-21T03:50:29.480Z,5.10
2023-05-21T03:52:57.419Z,4.95
2023-05-21T03:55:26.573Z,3.95
2023-05-21T03:57:54.469Z,3.42
2023-05-21T04:00:22.403Z,3.88
2023-05-21T04:02:50.770Z,5.57
2023-05-21T04:05:18.778Z,6.85
2023-05-21T04:07:47.507Z,4.77
2023-05-21T04:10:16.013Z,4.35
2023-05-21T04:12:45.212Z,4.07
2023-05-21T04:15:14.406Z,3.67
2023-05-21T04:17:42.288Z,4.45
2023-05-21T04:20:11.153Z,4.05
2023-05-21T04:22:39.117Z,3.45
2023-05-21T04:25:07.387Z,4.97
2023-05-21T04:27:35.532Z,4.20
2023-05-21T04:30:05.879Z,4.13
2023-05-21T04:32:35.750Z,4.45
2023-05-21T04:35:04.264Z,4.00
2023-05-21T04:37:34.992Z,3.40
2023-05-21T04:40:03.096Z,5.00
2023-05-21T04:42:32.837Z,5.05
2023-05-21T04:45:00.700Z,4.72
2023-05-21T04:47:35.329Z,3.60
2023-05-21T04:50:04.572Z,3.88
2023-05-21T04:52:34.663Z,3.95
2023-05-21T04:55:02.874Z,4.78
2023-05-21T04:57:30.694Z,4.00
2023-05-21T04:59:58.749Z,4.85
2023-05-21T05:02:26.704Z,3.90
2023-05-21T05:04:55.909Z,3.53
2023-05-21T05:07:23.741Z,4.07
2023-05-21T05:09:51.878Z,6.40
2023-05-21T05:12:19.696Z,5.00
2023-05-21T05:14:47.793Z,4.53
2023-05-21T05:17:15.854Z,4.93
2023-05-21T05:19:43.754Z,3.78
2023-05-21T05:22:13.692Z,4.82
2023-05-21T05:24:41.753Z,3.90
2023-05-21T05:27:09.623Z,3.72
2023-05-21T05:29:37.588Z,4.40
2023-05-21T05:32:06.040Z,6.28
2023-05-21T05:34:33.838Z,6.85
2023-05-21T05:37:02.687Z,4.32
2023-05-21T05:39:31.936Z,4.60
2023-05-21T05:41:59.785Z,7.00
2023-05-21T05:44:27.698Z,5.18
2023-05-21T05:46:55.953Z,4.55
2023-05-21T05:49:23.792Z,5.95
2023-05-21T05:51:51.610Z,7.60
2023-05-21T05:54:19.471Z,5.55
2023-05-21T05:56:48.821Z,5.95
2023-05-21T05:59:16.934Z,4.93
2023-05-21T06:01:45.077Z,4.78
2023-05-21T06:04:13.124Z,4.85
2023-05-21T06:06:41.044Z,5.38
2023-05-21T06:09:08.862Z,7.10
2023-05-21T06:11:36.754Z,5.22
2023-05-21T06:14:06.046Z,4.68
2023-05-21T06:16:34.133Z,4.68
2023-05-21T06:19:02.193Z,4.38
2023-05-21T06:21:30.313Z,5.00
2023-05-21T06:23:58.229Z,5.18
2023-05-21T06:26:26.277Z,4.22
2023-05-21T06:28:54.161Z,5.72
2023-05-21T06:31:23.391Z,5.35
2023-05-21T06:33:51.764Z,4.90
2023-05-21T06:36:19.818Z,5.50
2023-05-21T06:38:47.943Z,5.68
2023-05-21T06:41:16.171Z,4.85
2023-05-21T06:43:43.981Z,4.72
2023-05-21T06:46:11.841Z,5.18
2023-05-21T06:48:41.066Z,4.35
2023-05-21T06:51:08.898Z,6.63
2023-05-21T06:53:36.753Z,7.85
2023-05-21T06:56:04.942Z,4.60
2023-05-21T06:58:32.865Z,4.82
2023-05-21T07:01:01.184Z,6.38
2023-05-21T07:03:29.228Z,5.28
2023-05-21T07:05:58.525Z,6.72
2023-05-21T07:08:26.388Z,5.40
2023-05-21T07:10:54.243Z,7.13
2023-05-21T07:13:22.017Z,5.07
2023-05-21T07:15:50.761Z,5.80
2023-05-21T07:18:18.691Z,4.95
2023-05-21T07:20:46.521Z,5.93
2023-05-21T07:23:15.708Z,5.53
2023-05-21T07:25:43.556Z,6.15
2023-05-21T07:28:11.771Z,6.05
2023-05-21T07:30:39.748Z,6.03
2023-05-21T07:33:07.909Z,7.35
2023-05-21T07:35:35.992Z,5.05
2023-05-21T07:38:04.098Z,5.70
2023-05-21T07:40:33.352Z,6.20
2023-05-21T07:43:01.227Z,6.55
2023-05-21T07:45:29.162Z,7.25
2023-05-21T07:47:57.079Z,6.70
2023-05-21T07:50:26.360Z,7.30
2023-05-21T07:52:54.313Z,6.43
2023-05-21T07:55:22.513Z,6.20
2023-05-21T07:57:52.378Z,6.32
2023-05-21T08:00:20.477Z,4.80
2023-05-21T08:02:48.869Z,5.93
2023-05-21T08:05:17.582Z,5.88
2023-05-21T08:07:46.412Z,4.80
2023-05-21T08:10:15.380Z,6.60
2023-05-21T08:12:44.153Z,6.72
2023-05-21T08:15:13.725Z,5.95
2023-05-21T08:17:41.684Z,4.95
2023-05-21T08:20:10.479Z,5.72
2023-05-21T08:22:38.565Z,6.37
2023-05-21T08:25:07.590Z,6.20
2023-05-21T08:27:35.466Z,13.57
2023-05-21T08:30:03.518Z,7.68
2023-05-21T08:32:32.805Z,5.30
2023-05-21T08:35:00.767Z,5.80
2023-05-21T08:37:28.650Z,6.35
2023-05-21T08:39:56.551Z,5.85
2023-05-21T08:42:37.067Z,6.20
2023-05-21T08:45:07.605Z,5.78
2023-05-21T08:47:38.074Z,6.05
2023-05-21T08:50:08.680Z,6.22
2023-05-21T08:52:36.887Z,5.43
2023-05-21T08:55:06.023Z,5.75
2023-05-21T08:57:34.260Z,5.68
2023-05-21T09:00:02.719Z,6.55
2023-05-21T09:02:34.334Z,8.05
2023-05-21T09:05:04.759Z,5.32
2023-05-21T09:07:35.900Z,6.65
2023-05-21T09:10:06.174Z,7.80
2023-05-21T09:12:34.081Z,6.47
2023-05-21T09:15:02.528Z,8.68
2023-05-21T09:17:30.517Z,6.97
2023-05-21T09:20:16.616Z,5.18
2023-05-21T09:22:45.505Z,6.53
2023-05-21T09:25:14.559Z,5.00
2023-05-21T09:27:42.577Z,5.15
2023-05-21T09:30:15.755Z,6.07
2023-05-21T09:32:45.643Z,4.75
2023-05-21T09:35:16.107Z,4.78
2023-05-21T09:37:45.540Z,5.82
2023-05-21T09:40:15.571Z,5.50
2023-05-21T09:42:45.106Z,4.75
2023-05-21T09:45:13.611Z,5.28
2023-05-21T09:47:43.942Z,6.00
2023-05-21T09:50:14.344Z,5.50
2023-05-21T09:52:42.420Z,5.10
2023-05-21T09:55:13.444Z,5.40
2023-05-21T09:57:45.477Z,5.88
2023-05-21T10:00:21.233Z,5.95
2023-05-21T10:02:51.024Z,9.13
2023-05-21T10:05:21.189Z,6.75
2023-05-21T10:07:51.984Z,5.25
2023-05-21T10:10:21.880Z,6.22
2023-05-21T10:12:55.963Z,6.10
2023-05-21T10:15:26.152Z,5.28
2023-05-21T10:17:57.388Z,5.10
2023-05-21T10:20:27.189Z,5.78
2023-05-21T10:22:55.620Z,5.80
2023-05-21T10:25:24.579Z,5.22
2023-05-21T10:27:54.770Z,4.97
2023-05-21T10:30:24.369Z,7.05
2023-05-21T10:32:52.781Z,5.45
2023-05-21T10:35:20.924Z,7.07
2023-05-21T10:37:52.155Z,18.23
2023-05-21T10:40:20.155Z,7.85
2023-05-21T10:43:09.807Z,12.88
2023-05-21T10:45:51.958Z,5.43
2023-05-21T10:48:39.579Z,6.18
2023-05-21T10:51:21.086Z,5.53
2023-05-21T10:54:23.723Z,5.10
2023-05-21T10:57:01.353Z,9.88
2023-05-21T10:59:41.012Z,5.45
2023-05-21T11:02:10.742Z,5.85
2023-05-21T11:04:40.116Z,6.50
2023-05-21T11:07:08.505Z,6.30
2023-05-21T11:09:38.791Z,5.72
2023-05-21T11:12:08.095Z,7.68
2023-05-21T11:14:40.450Z,5.80
2023-05-21T11:17:13.840Z,5.95
2023-05-21T11:19:42.670Z,7.88
2023-05-21T11:22:21.784Z,5.78
2023-05-21T11:24:52.787Z,5.40
2023-05-21T11:27:34.649Z,6.07
2023-05-21T11:30:06.354Z,6.03
2023-05-21T11:32:37.676Z,8.18
2023-05-21T11:35:06.527Z,6.55
2023-05-21T11:37:35.506Z,6.32
2023-05-21T11:40:25.903Z,7.50
2023-05-21T11:42:55.944Z,6.68
2023-05-21T11:45:26.215Z,5.80
2023-05-21T11:47:54.308Z,6.60
2023-05-21T11:50:22.172Z,6.25
2023-05-21T11:52:51.135Z,5.90
2023-05-21T11:55:25.859Z,6.68
2023-05-21T11:57:55.617Z,6.72
2023-05-21T12:00:23.683Z,6.45
2023-05-21T12:02:55.568Z,7.15
2023-05-21T12:05:24.253Z,6.43
2023-05-21T12:07:52.137Z,7.57
2023-05-21T12:10:24.432Z,6.32
2023-05-21T12:12:56.455Z,6.30
2023-05-21T12:15:30.261Z,7.88
2023-05-21T12:18:01.172Z,8.15
2023-05-21T12:20:29.905Z,6.93
2023-05-21T12:23:00.874Z,9.57
2023-05-21T12:25:32.032Z,6.95
2023-05-21T12:28:01.323Z,6.90
2023-05-21T12:30:29.808Z,6.65
2023-05-21T12:32:59.742Z,7.20
2023-05-21T12:35:27.825Z,10.07
2023-05-21T12:37:55.933Z,8.85
2023-05-21T12:40:35.326Z,7.70
2023-05-21T12:43:05.282Z,7.22
2023-05-21T12:45:34.369Z,11.93
2023-05-21T12:48:02.664Z,7.85
2023-05-21T12:50:30.675Z,7.13
2023-05-21T12:52:59.583Z,6.72
2023-05-21T12:55:27.450Z,6.88
2023-05-21T12:58:07.905Z,9.77
2023-05-21T13:00:36.445Z,7.15
2023-05-21T13:03:06.387Z,7.65
2023-05-21T13:05:34.772Z,6.90
2023-05-21T13:08:02.822Z,7.38
2023-05-21T13:10:30.718Z,7.43
2023-05-21T13:12:58.614Z,7.93
2023-05-21T13:15:27.831Z,7.95
2023-05-21T13:17:57.183Z,7.30
2023-05-21T13:20:27.369Z,7.80
2023-05-21T13:22:55.720Z,6.82
2023-05-21T13:25:28.330Z,7.88
2023-05-21T13:27:56.811Z,7.75
2023-05-21T13:30:24.724Z,8.13
2023-05-21T13:32:54.170Z,7.75
2023-05-21T13:35:22.229Z,8.35
2023-05-21T13:37:50.784Z,7.53
2023-05-21T13:40:18.996Z,10.10
2023-05-21T13:42:48.883Z,9.95
2023-05-21T13:45:19.207Z,9.05
2023-05-21T13:47:49.103Z,7.90
2023-05-21T13:50:18.705Z,9.52
2023-05-21T13:52:47.560Z,8.57
2023-05-21T13:55:16.819Z,8.80
2023-05-21T13:57:45.871Z,8.32
2023-05-21T14:00:15.944Z,7.38
2023-05-21T14:02:44.490Z,8.45
2023-05-21T14:05:13.474Z,8.30
2023-05-21T14:07:43.002Z,7.85
2023-05-21T14:10:11.786Z,8.70
2023-05-21T14:12:40.656Z,13.70
2023-05-21T14:15:09.182Z,7.88
2023-05-21T14:17:37.165Z,7.72
2023-05-21T14:20:06.234Z,8.18
2023-05-21T14:22:34.136Z,7.85
2023-05-21T14:25:03.719Z,7.88
2023-05-21T14:27:31.587Z,7.78
2023-05-21T14:29:59.495Z,9.02
2023-05-21T14:32:27.557Z,7.47
2023-05-21T14:34:56.708Z,7.93
2023-05-21T14:37:24.806Z,6.72
2023-05-21T14:39:52.678Z,7.35
2023-05-21T14:42:22.740Z,7.78
2023-05-21T14:44:52.319Z,7.75
2023-05-21T14:47:20.491Z,6.50
2023-05-21T14:49:50.888Z,7.75
2023-05-21T14:52:19.379Z,7.75
2023-05-21T14:54:47.420Z,6.90
2023-05-21T14:57:15.662Z,8.25
2023-05-21T14:59:45.041Z,8.30
2023-05-21T15:02:13.232Z,6.72
2023-05-21T15:04:41.185Z,6.25
2023-05-21T15:07:09.021Z,9.45
2023-05-21T15:09:36.949Z,7.45
2023-05-21T15:12:05.220Z,6.63
2023-05-21T15:14:33.019Z,5.28
2023-05-21T15:17:02.214Z,4.85
2023-05-21T15:19:30.543Z,5.95
2023-05-21T15:21:58.607Z,7.90
2023-05-21T15:24:26.617Z,5.70
2023-05-21T15:26:54.689Z,5.70
2023-05-21T15:29:22.568Z,5.43
2023-05-21T15:31:50.868Z,5.85
2023-05-21T15:34:20.112Z,4.97
2023-05-21T15:36:48.545Z,9.00
2023-05-21T15:39:17.150Z,8.25
2023-05-21T15:41:45.068Z,4.53
2023-05-21T15:44:13.332Z,6.88
2023-05-21T15:46:41.249Z,5.25
2023-05-21T15:49:09.164Z,5.25
2023-05-21T15:51:38.552Z,4.47
2023-05-21T15:54:07.325Z,6.68
2023-05-21T15:56:35.194Z,6.10
2023-05-21T15:59:03.872Z,4.70
2023-05-21T16:01:31.837Z,9.20
2023-05-21T16:03:59.826Z,7.80
2023-05-21T16:06:27.800Z,5.78
2023-05-21T16:08:57.002Z,7.90
2023-05-21T16:11:25.298Z,4.35
2023-05-21T16:13:53.458Z,4.57
2023-05-21T16:16:24.543Z,4.22
2023-05-21T16:18:52.775Z,3.85
2023-05-21T16:21:20.884Z,5.43
2023-05-21T16:23:48.956Z,6.40
2023-05-21T16:26:18.541Z,7.25
2023-05-21T16:28:46.977Z,4.32
2023-05-21T16:31:15.041Z,4.28
2023-05-21T16:33:43.015Z,4.63
2023-05-21T16:36:10.985Z,5.72
2023-05-21T16:38:39.161Z,4.70
2023-05-21T16:41:07.080Z,5.50
2023-05-21T16:43:37.168Z,3.97
2023-05-21T16:46:05.088Z,5.50
2023-05-21T16:48:33.260Z,5.40
2023-05-21T16:51:01.260Z,5.45
2023-05-21T16:53:29.148Z,5.85
2023-05-21T16:55:57.255Z,3.97
2023-05-21T16:58:25.442Z,6.20
2023-05-21T17:00:54.791Z,5.88
2023-05-21T17:03:22.909Z,5.05
2023-05-21T17:05:52.901Z,4.40
2023-05-21T17:08:21.441Z,5.40
2023-05-21T17:10:50.002Z,4.40
2023-05-21T17:13:22.596Z,6.50
2023-05-21T17:15:51.915Z,5.75
2023-05-21T17:18:21.200Z,6.40
2023-05-21T17:20:49.699Z,4.45
2023-05-21T17:23:17.979Z,6.07
2023-05-21T17:25:46.268Z,4.65
2023-05-21T17:28:14.051Z,6.18
2023-05-21T17:30:42.982Z,6.30
2023-05-21T17:33:12.162Z,5.55
2023-05-21T17:35:41.551Z,4.95
2023-05-21T17:38:09.363Z,5.88
2023-05-21T17:40:37.231Z,6.13
2023-05-21T17:43:07.174Z,7.15
2023-05-21T17:45:35.544Z,10.20
2023-05-21T17:48:03.812Z,5.00
2023-05-21T17:50:31.883Z,6.53
2023-05-21T17:53:01.190Z,5.97
2023-05-21T17:55:29.141Z,9.10
2023-05-21T17:57:57.028Z,7.38
2023-05-21T18:00:25.130Z,6.78
2023-05-21T18:02:53.036Z,9.18
2023-05-21T18:05:21.334Z,8.18
2023-05-21T18:07:49.906Z,9.57
2023-05-21T18:10:19.190Z,9.90
2023-05-21T18:12:47.920Z,7.07
2023-05-21T18:15:16.381Z,11.63
2023-05-21T18:17:44.479Z,9.68
2023-05-21T18:20:14.254Z,7.63
2023-05-21T18:22:42.100Z,6.40
2023-05-21T18:25:10.987Z,8.93
2023-05-21T18:27:40.221Z,7.28
2023-05-21T18:30:09.116Z,7.97
2023-05-21T18:32:38.631Z,9.10
2023-05-21T18:35:07.843Z,8.13
2023-05-21T18:37:36.986Z,7.28
2023-05-21T18:40:07.374Z,9.00
2023-05-21T18:42:35.848Z,10.45
2023-05-21T18:45:10.339Z,7.95
2023-05-21T18:47:40.151Z,7.05
2023-05-21T18:50:19.029Z,8.07
2023-05-21T18:52:47.840Z,11.50
2023-05-21T18:55:16.292Z,9.52
2023-05-21T18:57:44.352Z,8.02
2023-05-21T19:00:14.813Z,9.32
2023-05-21T19:02:43.631Z,8.70
2023-05-21T19:05:11.962Z,10.32
2023-05-21T19:07:41.123Z,11.82
2023-05-21T19:10:10.333Z,8.50
2023-05-21T19:12:39.503Z,11.15
2023-05-21T19:15:08.777Z,13.02
2023-05-21T19:17:39.584Z,9.63
2023-05-21T19:20:09.108Z,15.25
2023-05-21T19:22:37.927Z,11.63
2023-05-21T19:25:06.488Z,14.27
2023-05-21T19:27:34.374Z,10.25
2023-05-21T19:30:02.258Z,15.10
2023-05-21T19:32:30.884Z,10.20
2023-05-21T19:35:00.157Z,11.00
2023-05-21T19:37:28.088Z,11.68
2023-05-21T19:39:55.950Z,10.60
2023-05-21T19:42:23.837Z,34.58
2023-05-21T19:44:51.829Z,13.30
2023-05-21T19:47:19.720Z,12.45
2023-05-21T19:49:47.823Z,12.68
2023-05-21T19:52:17.583Z,11.05
2023-05-21T19:54:46.218Z,10.95
2023-05-21T19:57:14.361Z,12.20
2023-05-21T19:59:42.259Z,10.20
2023-05-21T20:02:15.134Z,10.60
2023-05-21T20:04:43.013Z,12.70
2023-05-21T20:07:11.022Z,13.57
2023-05-21T20:09:41.315Z,12.55
2023-05-21T20:12:09.977Z,12.75
2023-05-21T20:14:37.785Z,10.95
2023-05-21T20:17:07.090Z,12.73
2023-05-21T20:19:35.797Z,12.57
2023-05-21T20:22:03.984Z,13.18
2023-05-21T20:24:31.826Z,12.75
2023-05-21T20:27:01.929Z,9.98
2023-05-21T20:29:29.974Z,11.98
2023-05-21T20:31:57.889Z,9.32
2023-05-21T20:34:27.501Z,10.73
2023-05-21T20:36:58.021Z,11.27
2023-05-21T20:39:27.261Z,15.32
2023-05-21T20:41:55.959Z,14.05
2023-05-21T20:44:27.399Z,13.60
2023-05-21T20:46:56.991Z,14.40
2023-05-21T20:49:25.845Z,10.57
2023-05-21T20:51:53.685Z,13.05
2023-05-21T20:54:22.208Z,10.70
2023-05-21T20:56:50.815Z,12.40
2023-05-21T20:59:18.777Z,10.70
2023-05-21T21:01:48.677Z,12.75
2023-05-21T21:04:17.843Z,11.48
2023-05-21T21:06:48.484Z,12.75
2023-05-21T21:09:16.362Z,10.45
2023-05-21T21:11:44.784Z,10.68
2023-05-21T21:14:13.689Z,13.20
2023-05-21T21:16:41.634Z,12.00
2023-05-21T21:19:11.008Z,10.82
2023-05-21T21:21:39.420Z,17.10
2023-05-21T21:24:08.020Z,14.38
2023-05-21T21:26:36.098Z,10.48
2023-05-21T21:29:04.060Z,12.23
2023-05-21T21:31:32.090Z,12.05
2023-05-21T21:33:59.984Z,11.68
2023-05-21T21:36:29.518Z,12.48
2023-05-21T21:38:57.396Z,11.70
2023-05-21T21:41:25.824Z,11.02
2023-05-21T21:43:53.691Z,12.57
2023-05-21T21:46:21.616Z,14.05
2023-05-21T21:48:49.845Z,13.88
2023-05-21T21:51:17.874Z,11.70
2023-05-21T21:53:47.579Z,14.93
2023-05-21T21:56:16.414Z,18.08
2023-05-21T21:58:45.073Z,11.98
2023-05-21T22:01:14.056Z,16.73
2023-05-21T22:03:42.000Z,11.50
2023-05-21T22:06:09.798Z,12.25
2023-05-21T22:08:37.671Z,12.88
2023-05-21T22:11:07.095Z,12.00
2023-05-21T22:13:35.316Z,13.27
2023-05-21T22:16:03.490Z,11.82
2023-05-21T22:18:41.072Z,11.95
2023-05-21T22:21:10.634Z,12.13
2023-05-21T22:23:39.438Z,14.70
2023-05-21T22:26:08.781Z,12.23
2023-05-21T22:28:36.728Z,11.70
2023-05-21T22:31:04.697Z,11.40
2023-05-21T22:33:32.617Z,17.15
2023-05-21T22:36:00.501Z,13.68
2023-05-21T22:38:28.382Z,11.30
2023-05-21T22:40:56.413Z,11.50
2023-05-21T22:43:26.797Z,12.52
2023-05-21T22:45:54.652Z,16.30
2023-05-21T22:48:22.929Z,17.15
2023-05-21T22:50:53.296Z,13.48
2023-05-21T22:53:21.549Z,13.43
2023-05-21T22:55:49.785Z,15.35
2023-05-21T22:58:18.042Z,15.57
2023-05-21T23:00:47.942Z,14.63
2023-05-21T23:03:16.407Z,14.98
2023-05-21T23:05:44.835Z,15.75
2023-05-21T23:08:13.296Z,14.80
2023-05-21T23:10:41.452Z,17.02
2023-05-21T23:13:09.441Z,14.57
2023-05-21T23:15:38.752Z,17.52
2023-05-21T23:18:08.784Z,15.13
2023-05-21T23:20:37.495Z,14.15
2023-05-21T23:23:05.856Z,17.20
2023-05-21T23:25:34.960Z,14.48
2023-05-21T23:28:02.879Z,14.40
2023-05-21T23:30:30.808Z,16.27
2023-05-21T23:32:58.699Z,12.75
2023-05-21T23:35:30.726Z,18.13
2023-05-21T23:37:58.553Z,16.83
2023-05-21T23:40:26.650Z,17.50
2023-05-21T23:42:54.574Z,12.63
2023-05-21T23:45:22.385Z,12.75
2023-05-21T23:47:50.683Z,13.23
2023-05-21T23:50:18.808Z,14.45
2023-05-21T23:52:48.564Z,20.00
2023-05-21T23:55:16.565Z,15.63
2023-05-21T23:57:44.499Z,16.75
